sensor_id;sensor_type;location;lat;lon;timestamp;P1;durP1;ratioP1;P2;durP2;ratioP2
14760;SDS011;7472;45.396;5.272;2024-03-08T00:01:21;6.82;;;6.10;;
14760;SDS011;7472;45.396;5.272;2024-03-08T00:03:49;11.73;;;6.53;;
14760;SDS011;7472;45.396;5.272;2024-03-08T00:06:17;12.27;;;7.28;;
14760;SDS011;7472;45.396;5.272;2024-03-08T00:08:45;8.05;;;7.05;;
14760;SDS011;7472;45.396;5.272;2024-03-08T00:11:13;10.40;;;7.10;;
14760;SDS011;7472;45.396;5.272;2024-03-08T00:13:41;11.27;;;6.75;;
14760;SDS011;7472;45.396;5.272;2024-03-08T00:16:08;11.82;;;7.03;;
14760;SDS011;7472;45.396;5.272;2024-03-08T00:18:36;10.60;;;6.43;;
14760;SDS011;7472;45.396;5.272;2024-03-08T00:21:03;10.90;;;6.32;;
14760;SDS011;7472;45.396;5.272;2024-03-08T00:23:31;10.57;;;6.78;;
14760;SDS011;7472;45.396;5.272;2024-03-08T00:25:58;11.88;;;5.97;;
14760;SDS011;7472;45.396;5.272;2024-03-08T00:28:27;8.27;;;5.80;;
14760;SDS011;7472;45.396;5.272;2024-03-08T00:30:54;12.77;;;5.95;;
14760;SDS011;7472;45.396;5.272;2024-03-08T00:33:22;9.35;;;5.50;;
14760;SDS011;7472;45.396;5.272;2024-03-08T00:35:49;10.18;;;5.47;;
14760;SDS011;7472;45.396;5.272;2024-03-08T00:38:16;8.63;;;5.97;;
14760;SDS011;7472;45.396;5.272;2024-03-08T00:40:44;10.05;;;6.10;;
14760;SDS011;7472;45.396;5.272;2024-03-08T00:43:12;8.98;;;6.57;;
14760;SDS011;7472;45.396;5.272;2024-03-08T00:45:42;11.00;;;6.82;;
14760;SDS011;7472;45.396;5.272;2024-03-08T00:48:09;8.98;;;5.90;;
14760;SDS011;7472;45.396;5.272;2024-03-08T00:50:37;12.38;;;5.40;;
14760;SDS011;7472;45.396;5.272;2024-03-08T00:53:04;6.80;;;6.10;;
14760;SDS011;7472;45.396;5.272;2024-03-08T00:55:31;8.93;;;5.47;;
14760;SDS011;7472;45.396;5.272;2024-03-08T00:58:00;8.40;;;5.85;;
14760;SDS011;7472;45.396;5.272;2024-03-08T01:00:27;12.27;;;6.45;;
14760;SDS011;7472;45.396;5.272;2024-03-08T01:02:56;7.00;;;5.10;;
14760;SDS011;7472;45.396;5.272;2024-03-08T01:05:25;10.32;;;5.93;;
14760;SDS011;7472;45.396;5.272;2024-03-08T01:07:52;9.35;;;5.43;;
14760;SDS011;7472;45.396;5.272;2024-03-08T01:10:19;12.25;;;5.40;;
14760;SDS011;7472;45.396;5.272;2024-03-08T01:12:48;9.73;;;6.18;;
14760;SDS011;7472;45.396;5.272;2024-03-08T01:15:15;10.10;;;5.80;;
14760;SDS011;7472;45.396;5.272;2024-03-08T01:17:42;8.27;;;5.47;;
14760;SDS011;7472;45.396;5.272;2024-03-08T01:20:11;11.43;;;6.80;;
14760;SDS011;7472;45.396;5.272;2024-03-08T01:22:40;10.52;;;6.70;;
14760;SDS011;7472;45.396;5.272;2024-03-08T01:25:07;12.73;;;6.72;;
14760;SDS011;7472;45.396;5.272;2024-03-08T01:27:35;10.00;;;6.30;;
14760;SDS011;7472;45.396;5.272;2024-03-08T01:30:02;13.98;;;6.88;;
14760;SDS011;7472;45.396;5.272;2024-03-08T01:32:30;13.70;;;7.53;;
14760;SDS011;7472;45.396;5.272;2024-03-08T01:34:57;12.15;;;7.68;;
14760;SDS011;7472;45.396;5.272;2024-03-08T01:37:26;12.77;;;7.70;;
14760;SDS011;7472;45.396;5.272;2024-03-08T01:39:54;11.13;;;8.02;;
14760;SDS011;7472;45.396;5.272;2024-03-08T01:42:22;10.25;;;7.47;;
14760;SDS011;7472;45.396;5.272;2024-03-08T01:44:49;9.63;;;6.38;;
14760;SDS011;7472;45.396;5.272;2024-03-08T01:47:16;9.52;;;6.50;;
14760;SDS011;7472;45.396;5.272;2024-03-08T01:49:48;14.05;;;6.10;;
14760;SDS011;7472;45.396;5.272;2024-03-08T01:52:16;6.95;;;5.68;;
14760;SDS011;7472;45.396;5.272;2024-03-08T01:54:49;7.90;;;6.13;;
14760;SDS011;7472;45.396;5.272;2024-03-08T01:57:16;6.93;;;5.53;;
14760;SDS011;7472;45.396;5.272;2024-03-08T01:59:43;8.20;;;5.82;;
14760;SDS011;7472;45.396;5.272;2024-03-08T02:02:11;8.15;;;5.30;;
14760;SDS011;7472;45.396;5.272;2024-03-08T02:04:41;8.48;;;5.10;;
14760;SDS011;7472;45.396;5.272;2024-03-08T02:07:09;8.73;;;4.97;;
14760;SDS011;7472;45.396;5.272;2024-03-08T02:09:36;7.80;;;5.03;;
14760;SDS011;7472;45.396;5.272;2024-03-08T02:12:06;9.02;;;5.43;;
14760;SDS011;7472;45.396;5.272;2024-03-08T02:14:33;9.80;;;5.60;;
14760;SDS011;7472;45.396;5.272;2024-03-08T02:17:01;9.13;;;4.60;;
14760;SDS011;7472;45.396;5.272;2024-03-08T02:19:30;7.53;;;5.25;;
14760;SDS011;7472;45.396;5.272;2024-03-08T02:21:59;6.75;;;4.85;;
14760;SDS011;7472;45.396;5.272;2024-03-08T02:24:29;6.57;;;4.70;;
14760;SDS011;7472;45.396;5.272;2024-03-08T02:26:56;8.88;;;4.82;;
14760;SDS011;7472;45.396;5.272;2024-03-08T02:29:24;6.68;;;5.45;;
14760;SDS011;7472;45.396;5.272;2024-03-08T02:31:51;5.70;;;4.80;;
14760;SDS011;7472;45.396;5.272;2024-03-08T02:34:18;6.03;;;4.95;;
14760;SDS011;7472;45.396;5.272;2024-03-08T02:36:46;10.82;;;5.78;;
14760;SDS011;7472;45.396;5.272;2024-03-08T02:39:15;6.93;;;5.28;;
14760;SDS011;7472;45.396;5.272;2024-03-08T02:41:43;7.30;;;4.90;;
14760;SDS011;7472;45.396;5.272;2024-03-08T02:44:11;7.63;;;5.85;;
14760;SDS011;7472;45.396;5.272;2024-03-08T02:46:40;7.40;;;5.57;;
14760;SDS011;7472;45.396;5.272;2024-03-08T02:49:07;8.80;;;6.03;;
14760;SDS011;7472;45.396;5.272;2024-03-08T02:51:35;10.68;;;5.57;;
14760;SDS011;7472;45.396;5.272;2024-03-08T02:54:02;11.93;;;5.55;;
14760;SDS011;7472;45.396;5.272;2024-03-08T02:56:31;7.97;;;6.07;;
14760;SDS011;7472;45.396;5.272;2024-03-08T02:59:00;6.95;;;5.28;;
14760;SDS011;7472;45.396;5.272;2024-03-08T03:01:28;8.48;;;6.45;;
14760;SDS011;7472;45.396;5.272;2024-03-08T03:03:57;9.07;;;5.95;;
14760;SDS011;7472;45.396;5.272;2024-03-08T03:06:24;8.88;;;6.38;;
14760;SDS011;7472;45.396;5.272;2024-03-08T03:08:51;6.97;;;5.95;;
14760;SDS011;7472;45.396;5.272;2024-03-08T03:11:19;9.32;;;6.53;;
14760;SDS011;7472;45.396;5.272;2024-03-08T03:13:48;9.68;;;5.68;;
14760;SDS011;7472;45.396;5.272;2024-03-08T03:16:19;8.38;;;6.28;;
14760;SDS011;7472;45.396;5.272;2024-03-08T03:18:46;7.22;;;5.55;;
14760;SDS011;7472;45.396;5.272;2024-03-08T03:21:14;10.15;;;6.60;;
14760;SDS011;7472;45.396;5.272;2024-03-08T03:23:42;7.07;;;5.90;;
14760;SDS011;7472;45.396;5.272;2024-03-08T03:26:11;9.93;;;6.30;;
14760;SDS011;7472;45.396;5.272;2024-03-08T03:28:42;7.90;;;6.47;;
14760;SDS011;7472;45.396;5.272;2024-03-08T03:31:12;9.95;;;6.00;;
14760;SDS011;7472;45.396;5.272;2024-03-08T03:33:40;6.82;;;5.43;;
14760;SDS011;7472;45.396;5.272;2024-03-08T03:36:10;6.40;;;5.72;;
14760;SDS011;7472;45.396;5.272;2024-03-08T03:38:39;9.93;;;6.63;;
14760;SDS011;7472;45.396;5.272;2024-03-08T03:41:06;9.50;;;5.70;;
14760;SDS011;7472;45.396;5.272;2024-03-08T03:43:36;7.57;;;5.85;;
14760;SDS011;7472;45.396;5.272;2024-03-08T03:46:05;6.40;;;5.80;;
14760;SDS011;7472;45.396;5.272;2024-03-08T03:48:37;8.80;;;6.22;;
14760;SDS011;7472;45.396;5.272;2024-03-08T03:51:08;10.07;;;6.47;;
14760;SDS011;7472;45.396;5.272;2024-03-08T03:53:40;8.80;;;5.97;;
14760;SDS011;7472;45.396;5.272;2024-03-08T03:56:09;9.52;;;5.85;;
14760;SDS011;7472;45.396;5.272;2024-03-08T03:58:37;7.35;;;6.10;;
14760;SDS011;7472;45.396;5.272;2024-03-08T04:01:05;7.65;;;5.22;;
14760;SDS011;7472;45.396;5.272;2024-03-08T04:03:32;7.10;;;5.65;;
14760;SDS011;7472;45.396;5.272;2024-03-08T04:06:01;6.68;;;4.93;;
14760;SDS011;7472;45.396;5.272;2024-03-08T04:08:29;7.45;;;5.60;;
14760;SDS011;7472;45.396;5.272;2024-03-08T04:10:59;8.93;;;6.20;;
14760;SDS011;7472;45.396;5.272;2024-03-08T04:13:26;8.07;;;5.30;;
14760;SDS011;7472;45.396;5.272;2024-03-08T04:15:54;7.20;;;5.25;;
14760;SDS011;7472;45.396;5.272;2024-03-08T04:18:22;7.95;;;5.13;;
14760;SDS011;7472;45.396;5.272;2024-03-08T04:20:49;8.15;;;5.82;;
14760;SDS011;7472;45.396;5.272;2024-03-08T04:23:18;6.60;;;5.95;;
14760;SDS011;7472;45.396;5.272;2024-03-08T04:25:46;6.43;;;5.57;;
14760;SDS011;7472;45.396;5.272;2024-03-08T04:28:13;7.95;;;6.72;;
14760;SDS011;7472;45.396;5.272;2024-03-08T04:30:42;10.02;;;5.95;;
14760;SDS011;7472;45.396;5.272;2024-03-08T04:33:11;9.02;;;5.97;;
14760;SDS011;7472;45.396;5.272;2024-03-08T04:35:39;10.13;;;6.90;;
14760;SDS011;7472;45.396;5.272;2024-03-08T04:38:07;10.25;;;6.57;;
14760;SDS011;7472;45.396;5.272;2024-03-08T04:40:36;7.95;;;6.30;;
14760;SDS011;7472;45.396;5.272;2024-03-08T04:43:04;7.53;;;5.82;;
14760;SDS011;7472;45.396;5.272;2024-03-08T04:45:33;11.02;;;6.65;;
14760;SDS011;7472;45.396;5.272;2024-03-08T04:48:00;8.00;;;5.90;;
14760;SDS011;7472;45.396;5.272;2024-03-08T04:50:28;11.05;;;6.22;;
14760;SDS011;7472;45.396;5.272;2024-03-08T04:52:55;9.85;;;6.40;;
14760;SDS011;7472;45.396;5.272;2024-03-08T04:55:22;8.95;;;7.55;;
14760;SDS011;7472;45.396;5.272;2024-03-08T04:57:51;9.18;;;7.22;;
14760;SDS011;7472;45.396;5.272;2024-03-08T05:00:18;10.30;;;8.52;;
14760;SDS011;7472;45.396;5.272;2024-03-08T05:02:46;11.82;;;8.18;;
14760;SDS011;7472;45.396;5.272;2024-03-08T05:05:13;11.48;;;8.52;;
14760;SDS011;7472;45.396;5.272;2024-03-08T05:07:40;12.85;;;7.93;;
14760;SDS011;7472;45.396;5.272;2024-03-08T05:10:09;10.55;;;8.60;;
14760;SDS011;7472;45.396;5.272;2024-03-08T05:12:36;12.40;;;8.45;;
14760;SDS011;7472;45.396;5.272;2024-03-08T05:15:05;12.07;;;8.60;;
14760;SDS011;7472;45.396;5.272;2024-03-08T05:17:33;10.65;;;8.10;;
14760;SDS011;7472;45.396;5.272;2024-03-08T05:20:00;10.80;;;8.05;;
14760;SDS011;7472;45.396;5.272;2024-03-08T05:22:28;12.02;;;9.00;;
14760;SDS011;7472;45.396;5.272;2024-03-08T05:24:55;11.10;;;8.52;;
14760;SDS011;7472;45.396;5.272;2024-03-08T05:27:22;10.65;;;8.15;;
14760;SDS011;7472;45.396;5.272;2024-03-08T05:29:49;11.45;;;8.02;;
14760;SDS011;7472;45.396;5.272;2024-03-08T05:32:17;10.65;;;6.82;;
14760;SDS011;7472;45.396;5.272;2024-03-08T05:34:45;11.32;;;8.05;;
14760;SDS011;7472;45.396;5.272;2024-03-08T05:37:12;9.35;;;7.70;;
14760;SDS011;7472;45.396;5.272;2024-03-08T05:39:39;9.77;;;7.18;;
14760;SDS011;7472;45.396;5.272;2024-03-08T05:42:07;10.38;;;6.65;;
14760;SDS011;7472;45.396;5.272;2024-03-08T05:44:34;11.02;;;7.63;;
14760;SDS011;7472;45.396;5.272;2024-03-08T05:47:01;9.18;;;8.02;;
14760;SDS011;7472;45.396;5.272;2024-03-08T05:49:30;9.40;;;7.28;;
14760;SDS011;7472;45.396;5.272;2024-03-08T05:51:57;10.07;;;7.18;;
14760;SDS011;7472;45.396;5.272;2024-03-08T05:54:25;9.07;;;7.25;;
14760;SDS011;7472;45.396;5.272;2024-03-08T05:56:52;12.90;;;8.05;;
14760;SDS011;7472;45.396;5.272;2024-03-08T05:59:19;9.25;;;7.60;;
14760;SDS011;7472;45.396;5.272;2024-03-08T06:01:48;11.75;;;7.32;;
14760;SDS011;7472;45.396;5.272;2024-03-08T06:04:15;10.13;;;8.13;;
14760;SDS011;7472;45.396;5.272;2024-03-08T06:06:44;15.00;;;7.50;;
14760;SDS011;7472;45.396;5.272;2024-03-08T06:09:11;11.05;;;7.35;;
14760;SDS011;7472;45.396;5.272;2024-03-08T06:11:42;10.10;;;7.53;;
14760;SDS011;7472;45.396;5.272;2024-03-08T06:14:09;10.00;;;7.75;;
14760;SDS011;7472;45.396;5.272;2024-03-08T06:16:37;9.63;;;7.40;;
14760;SDS011;7472;45.396;5.272;2024-03-08T06:19:04;9.95;;;7.65;;
14760;SDS011;7472;45.396;5.272;2024-03-08T06:21:31;11.00;;;8.38;;
14760;SDS011;7472;45.396;5.272;2024-03-08T06:24:00;12.85;;;8.60;;
14760;SDS011;7472;45.396;5.272;2024-03-08T06:26:27;10.32;;;8.93;;
14760;SDS011;7472;45.396;5.272;2024-03-08T06:28:54;9.40;;;8.13;;
14760;SDS011;7472;45.396;5.272;2024-03-08T06:31:21;11.00;;;8.52;;
14760;SDS011;7472;45.396;5.272;2024-03-08T06:33:48;13.00;;;8.95;;
14760;SDS011;7472;45.396;5.272;2024-03-08T06:36:16;13.13;;;9.52;;
14760;SDS011;7472;45.396;5.272;2024-03-08T06:38:44;12.70;;;9.50;;
14760;SDS011;7472;45.396;5.272;2024-03-08T06:41:13;13.60;;;9.77;;
14760;SDS011;7472;45.396;5.272;2024-03-08T06:43:41;9.10;;;7.90;;
14760;SDS011;7472;45.396;5.272;2024-03-08T06:46:08;9.80;;;7.85;;
14760;SDS011;7472;45.396;5.272;2024-03-08T06:48:37;9.73;;;7.40;;
14760;SDS011;7472;45.396;5.272;2024-03-08T06:51:04;11.50;;;8.52;;
14760;SDS011;7472;45.396;5.272;2024-03-08T06:53:32;11.02;;;8.80;;
14760;SDS011;7472;45.396;5.272;2024-03-08T06:56:00;11.48;;;9.18;;
14760;SDS011;7472;45.396;5.272;2024-03-08T06:58:28;14.55;;;8.90;;
14760;SDS011;7472;45.396;5.272;2024-03-08T07:00:57;13.13;;;8.52;;
14760;SDS011;7472;45.396;5.272;2024-03-08T07:03:26;11.95;;;9.38;;
14760;SDS011;7472;45.396;5.272;2024-03-08T07:05:54;10.50;;;8.98;;
14760;SDS011;7472;45.396;5.272;2024-03-08T07:08:21;9.90;;;8.65;;
14760;SDS011;7472;45.396;5.272;2024-03-08T07:10:49;13.68;;;10.48;;
14760;SDS011;7472;45.396;5.272;2024-03-08T07:13:16;17.48;;;11.60;;
14760;SDS011;7472;45.396;5.272;2024-03-08T07:15:44;14.45;;;10.73;;
14760;SDS011;7472;45.396;5.272;2024-03-08T07:18:11;17.83;;;12.10;;
14760;SDS011;7472;45.396;5.272;2024-03-08T07:20:40;12.57;;;10.13;;
14760;SDS011;7472;45.396;5.272;2024-03-08T07:23:08;12.93;;;10.57;;
14760;SDS011;7472;45.396;5.272;2024-03-08T07:25:36;14.77;;;10.30;;
14760;SDS011;7472;45.396;5.272;2024-03-08T07:28:04;14.77;;;9.40;;
14760;SDS011;7472;45.396;5.272;2024-03-08T07:30:32;12.00;;;9.00;;
14760;SDS011;7472;45.396;5.272;2024-03-08T07:33:28;11.93;;;8.52;;
14760;SDS011;7472;45.396;5.272;2024-03-08T07:35:55;10.48;;;8.95;;
14760;SDS011;7472;45.396;5.272;2024-03-08T07:38:23;11.65;;;9.25;;
14760;SDS011;7472;45.396;5.272;2024-03-08T07:40:50;12.85;;;10.55;;
14760;SDS011;7472;45.396;5.272;2024-03-08T07:43:17;11.80;;;8.43;;
14760;SDS011;7472;45.396;5.272;2024-03-08T07:45:45;10.30;;;7.57;;
14760;SDS011;7472;45.396;5.272;2024-03-08T07:48:12;8.52;;;6.93;;
14760;SDS011;7472;45.396;5.272;2024-03-08T07:50:43;8.13;;;5.97;;
14760;SDS011;7472;45.396;5.272;2024-03-08T07:53:10;11.52;;;7.18;;
14760;SDS011;7472;45.396;5.272;2024-03-08T07:55:37;12.85;;;9.38;;
14760;SDS011;7472;45.396;5.272;2024-03-08T07:58:07;13.45;;;9.18;;
14760;SDS011;7472;45.396;5.272;2024-03-08T08:00:36;12.70;;;8.98;;
14760;SDS011;7472;45.396;5.272;2024-03-08T08:03:03;12.80;;;8.90;;
14760;SDS011;7472;45.396;5.272;2024-03-08T08:05:31;10.32;;;7.63;;
14760;SDS011;7472;45.396;5.272;2024-03-08T08:08:01;10.77;;;7.97;;
14760;SDS011;7472;45.396;5.272;2024-03-08T08:10:31;10.02;;;8.20;;
14760;SDS011;7472;45.396;5.272;2024-03-08T08:12:58;10.88;;;7.97;;
14760;SDS011;7472;45.396;5.272;2024-03-08T08:15:26;11.40;;;7.95;;
14760;SDS011;7472;45.396;5.272;2024-03-08T08:17:53;10.82;;;7.10;;
14760;SDS011;7472;45.396;5.272;2024-03-08T08:20:21;12.35;;;8.40;;
14760;SDS011;7472;45.396;5.272;2024-03-08T08:22:49;12.80;;;9.25;;
14760;SDS011;7472;45.396;5.272;2024-03-08T08:25:18;12.85;;;8.48;;
14760;SDS011;7472;45.396;5.272;2024-03-08T08:27:47;10.05;;;8.52;;
14760;SDS011;7472;45.396;5.272;2024-03-08T08:30:15;13.48;;;8.27;;
14760;SDS011;7472;45.396;5.272;2024-03-08T08:32:42;11.68;;;7.45;;
14760;SDS011;7472;45.396;5.272;2024-03-08T08:35:12;9.60;;;6.72;;
14760;SDS011;7472;45.396;5.272;2024-03-08T08:37:39;8.82;;;6.68;;
14760;SDS011;7472;45.396;5.272;2024-03-08T08:40:07;9.68;;;6.57;;
14760;SDS011;7472;45.396;5.272;2024-03-08T08:42:40;11.50;;;6.90;;
14760;SDS011;7472;45.396;5.272;2024-03-08T08:45:08;6.93;;;5.90;;
14760;SDS011;7472;45.396;5.272;2024-03-08T08:47:36;8.73;;;5.45;;
14760;SDS011;7472;45.396;5.272;2024-03-08T08:50:03;10.05;;;5.68;;
14760;SDS011;7472;45.396;5.272;2024-03-08T08:52:31;7.45;;;5.57;;
14760;SDS011;7472;45.396;5.272;2024-03-08T08:55:00;8.38;;;5.80;;
14760;SDS011;7472;45.396;5.272;2024-03-08T08:57:28;8.15;;;5.13;;
14760;SDS011;7472;45.396;5.272;2024-03-08T08:59:59;7.20;;;5.15;;
14760;SDS011;7472;45.396;5.272;2024-03-08T09:02:26;6.82;;;4.50;;
14760;SDS011;7472;45.396;5.272;2024-03-08T09:04:54;5.55;;;4.45;;
14760;SDS011;7472;45.396;5.272;2024-03-08T09:07:22;7.63;;;5.28;;
14760;SDS011;7472;45.396;5.272;2024-03-08T09:09:49;5.90;;;5.18;;
14760;SDS011;7472;45.396;5.272;2024-03-08T09:12:17;8.00;;;4.75;;
14760;SDS011;7472;45.396;5.272;2024-03-08T09:14:44;6.10;;;4.88;;
14760;SDS011;7472;45.396;5.272;2024-03-08T09:17:14;6.63;;;4.63;;
14760;SDS011;7472;45.396;5.272;2024-03-08T09:19:45;7.32;;;4.85;;
14760;SDS011;7472;45.396;5.272;2024-03-08T09:22:12;9.27;;;4.43;;
14760;SDS011;7472;45.396;5.272;2024-03-08T09:24:40;6.45;;;4.78;;
14760;SDS011;7472;45.396;5.272;2024-03-08T09:27:08;7.45;;;4.97;;
14760;SDS011;7472;45.396;5.272;2024-03-08T09:29:35;8.75;;;5.10;;
14760;SDS011;7472;45.396;5.272;2024-03-08T09:32:03;7.28;;;4.43;;
14760;SDS011;7472;45.396;5.272;2024-03-08T09:34:31;10.48;;;4.70;;
14760;SDS011;7472;45.396;5.272;2024-03-08T09:36:59;5.75;;;4.35;;
14760;SDS011;7472;45.396;5.272;2024-03-08T09:39:26;6.40;;;4.45;;
14760;SDS011;7472;45.396;5.272;2024-03-08T09:41:54;4.20;;;3.65;;
14760;SDS011;7472;45.396;5.272;2024-03-08T09:44:21;7.72;;;4.63;;
14760;SDS011;7472;45.396;5.272;2024-03-08T09:46:50;6.03;;;3.88;;
14760;SDS011;7472;45.396;5.272;2024-03-08T09:49:18;8.77;;;4.22;;
14760;SDS011;7472;45.396;5.272;2024-03-08T09:51:47;4.65;;;3.88;;
14760;SDS011;7472;45.396;5.272;2024-03-08T09:54:14;7.63;;;4.70;;
14760;SDS011;7472;45.396;5.272;2024-03-08T09:56:42;7.10;;;5.22;;
14760;SDS011;7472;45.396;5.272;2024-03-08T09:59:10;8.98;;;5.90;;
14760;SDS011;7472;45.396;5.272;2024-03-08T10:02:08;7.35;;;5.95;;
14760;SDS011;7472;45.396;5.272;2024-03-08T10:04:40;8.43;;;6.60;;
14760;SDS011;7472;45.396;5.272;2024-03-08T10:07:08;7.78;;;6.60;;
14760;SDS011;7472;45.396;5.272;2024-03-08T10:09:36;6.82;;;5.63;;
14760;SDS011;7472;45.396;5.272;2024-03-08T10:12:04;7.40;;;6.65;;
14760;SDS011;7472;45.396;5.272;2024-03-08T10:14:31;8.50;;;6.50;;
14760;SDS011;7472;45.396;5.272;2024-03-08T10:16:59;10.45;;;6.50;;
14760;SDS011;7472;45.396;5.272;2024-03-08T10:19:26;9.48;;;7.40;;
14760;SDS011;7472;45.396;5.272;2024-03-08T10:21:55;10.38;;;6.70;;
14760;SDS011;7472;45.396;5.272;2024-03-08T10:24:25;7.93;;;6.03;;
14760;SDS011;7472;45.396;5.272;2024-03-08T10:26:52;10.48;;;6.72;;
14760;SDS011;7472;45.396;5.272;2024-03-08T10:29:20;10.13;;;5.97;;
14760;SDS011;7472;45.396;5.272;2024-03-08T10:31:47;6.93;;;6.00;;
14760;SDS011;7472;45.396;5.272;2024-03-08T10:34:16;9.02;;;7.35;;
14760;SDS011;7472;45.396;5.272;2024-03-08T10:36:44;7.25;;;5.50;;
14760;SDS011;7472;45.396;5.272;2024-03-08T10:39:14;8.50;;;5.70;;
14760;SDS011;7472;45.396;5.272;2024-03-08T10:41:46;7.05;;;5.20;;
14760;SDS011;7472;45.396;5.272;2024-03-08T10:44:17;6.80;;;5.45;;
14760;SDS011;7472;45.396;5.272;2024-03-08T10:46:49;7.32;;;5.18;;
14760;SDS011;7472;45.396;5.272;2024-03-08T10:49:21;7.80;;;5.15;;
14760;SDS011;7472;45.396;5.272;2024-03-08T10:51:51;4.97;;;4.45;;
14760;SDS011;7472;45.396;5.272;2024-03-08T10:54:20;7.32;;;5.90;;
14760;SDS011;7472;45.396;5.272;2024-03-08T10:56:49;6.25;;;5.57;;
14760;SDS011;7472;45.396;5.272;2024-03-08T10:59:16;5.40;;;4.80;;
14760;SDS011;7472;45.396;5.272;2024-03-08T11:01:44;6.07;;;5.45;;
14760;SDS011;7472;45.396;5.272;2024-03-08T11:04:12;6.60;;;4.95;;
14760;SDS011;7472;45.396;5.272;2024-03-08T11:06:41;5.72;;;5.07;;
14760;SDS011;7472;45.396;5.272;2024-03-08T11:09:18;6.28;;;5.30;;
14760;SDS011;7472;45.396;5.272;2024-03-08T11:14:44;26.92;;;15.57;;
14760;SDS011;7472;45.396;5.272;2024-03-08T11:17:14;14.50;;;9.10;;
14760;SDS011;7472;45.396;5.272;2024-03-08T11:19:46;21.83;;;13.90;;
14760;SDS011;7472;45.396;5.272;2024-03-08T11:22:22;26.85;;;15.60;;
14760;SDS011;7472;45.396;5.272;2024-03-08T11:24:52;7.78;;;4.50;;
14760;SDS011;7472;45.396;5.272;2024-03-08T11:27:19;8.73;;;5.00;;
14760;SDS011;7472;45.396;5.272;2024-03-08T11:30:00;9.20;;;5.75;;
14760;SDS011;7472;45.396;5.272;2024-03-08T11:32:35;7.35;;;6.25;;
14760;SDS011;7472;45.396;5.272;2024-03-08T11:35:05;9.00;;;6.82;;
14760;SDS011;7472;45.396;5.272;2024-03-08T11:37:34;9.55;;;7.97;;
14760;SDS011;7472;45.396;5.272;2024-03-08T11:40:01;12.18;;;8.75;;
14760;SDS011;7472;45.396;5.272;2024-03-08T11:42:30;13.32;;;8.68;;
14760;SDS011;7472;45.396;5.272;2024-03-08T11:44:56;11.95;;;6.50;;
14760;SDS011;7472;45.396;5.272;2024-03-08T11:47:25;9.20;;;7.47;;
14760;SDS011;7472;45.396;5.272;2024-03-08T11:49:52;13.80;;;8.52;;
14760;SDS011;7472;45.396;5.272;2024-03-08T11:52:20;13.15;;;7.63;;
14760;SDS011;7472;45.396;5.272;2024-03-08T11:54:51;11.40;;;7.70;;
14760;SDS011;7472;45.396;5.272;2024-03-08T11:57:22;9.13;;;7.18;;
14760;SDS011;7472;45.396;5.272;2024-03-08T11:59:50;11.00;;;8.68;;
14760;SDS011;7472;45.396;5.272;2024-03-08T12:02:17;12.57;;;8.68;;
14760;SDS011;7472;45.396;5.272;2024-03-08T12:04:46;11.80;;;8.85;;
14760;SDS011;7472;45.396;5.272;2024-03-08T12:07:13;13.57;;;9.73;;
14760;SDS011;7472;45.396;5.272;2024-03-08T12:09:44;15.55;;;10.98;;
14760;SDS011;7472;45.396;5.272;2024-03-08T12:12:13;14.98;;;10.57;;
14760;SDS011;7472;45.396;5.272;2024-03-08T12:14:42;15.13;;;10.05;;
14760;SDS011;7472;45.396;5.272;2024-03-08T12:17:10;13.98;;;10.98;;
14760;SDS011;7472;45.396;5.272;2024-03-08T12:19:39;13.73;;;10.32;;
14760;SDS011;7472;45.396;5.272;2024-03-08T12:22:15;15.45;;;11.32;;
14760;SDS011;7472;45.396;5.272;2024-03-08T12:24:42;14.93;;;10.90;;
14760;SDS011;7472;45.396;5.272;2024-03-08T12:27:19;14.63;;;10.38;;
14760;SDS011;7472;45.396;5.272;2024-03-08T12:29:47;13.73;;;10.15;;
14760;SDS011;7472;45.396;5.272;2024-03-08T12:32:15;10.43;;;9.20;;
14760;SDS011;7472;45.396;5.272;2024-03-08T12:34:43;12.43;;;9.85;;
14760;SDS011;7472;45.396;5.272;2024-03-08T12:37:10;15.68;;;10.95;;
14760;SDS011;7472;45.396;5.272;2024-03-08T12:39:40;12.07;;;9.38;;
14760;SDS011;7472;45.396;5.272;2024-03-08T12:42:07;12.93;;;8.77;;
14760;SDS011;7472;45.396;5.272;2024-03-08T12:44:35;10.93;;;8.88;;
14760;SDS011;7472;45.396;5.272;2024-03-08T12:47:07;12.35;;;9.80;;
14760;SDS011;7472;45.396;5.272;2024-03-08T12:49:35;11.90;;;9.13;;
14760;SDS011;7472;45.396;5.272;2024-03-08T12:52:02;11.98;;;9.43;;
14760;SDS011;7472;45.396;5.272;2024-03-08T12:54:29;12.90;;;9.15;;
14760;SDS011;7472;45.396;5.272;2024-03-08T12:56:58;11.05;;;8.25;;
14760;SDS011;7472;45.396;5.272;2024-03-08T12:59:25;10.40;;;8.88;;
14760;SDS011;7472;45.396;5.272;2024-03-08T13:01:53;14.65;;;9.15;;
14760;SDS011;7472;45.396;5.272;2024-03-08T13:04:23;12.00;;;8.90;;
14760;SDS011;7472;45.396;5.272;2024-03-08T13:06:50;12.70;;;9.00;;
14760;SDS011;7472;45.396;5.272;2024-03-08T13:09:19;11.07;;;9.88;;
14760;SDS011;7472;45.396;5.272;2024-03-08T13:11:47;11.80;;;10.40;;
14760;SDS011;7472;45.396;5.272;2024-03-08T13:14:16;12.65;;;9.77;;
14760;SDS011;7472;45.396;5.272;2024-03-08T13:16:43;12.85;;;10.60;;
14760;SDS011;7472;45.396;5.272;2024-03-08T13:19:13;13.52;;;10.98;;
14760;SDS011;7472;45.396;5.272;2024-03-08T13:21:40;14.60;;;8.85;;
14760;SDS011;7472;45.396;5.272;2024-03-08T13:24:08;11.52;;;8.82;;
14760;SDS011;7472;45.396;5.272;2024-03-08T13:26:36;15.18;;;9.48;;
14760;SDS011;7472;45.396;5.272;2024-03-08T13:29:03;13.15;;;9.20;;
14760;SDS011;7472;45.396;5.272;2024-03-08T13:31:33;9.18;;;7.20;;
14760;SDS011;7472;45.396;5.272;2024-03-08T13:34:01;8.02;;;6.90;;
14760;SDS011;7472;45.396;5.272;2024-03-08T13:36:30;9.32;;;7.00;;
14760;SDS011;7472;45.396;5.272;2024-03-08T13:39:04;12.35;;;7.95;;
14760;SDS011;7472;45.396;5.272;2024-03-08T13:41:40;12.20;;;7.20;;
14760;SDS011;7472;45.396;5.272;2024-03-08T13:44:08;7.85;;;6.72;;
14760;SDS011;7472;45.396;5.272;2024-03-08T13:46:36;10.18;;;6.63;;
14760;SDS011;7472;45.396;5.272;2024-03-08T13:49:05;10.57;;;7.20;;
14760;SDS011;7472;45.396;5.272;2024-03-08T13:51:35;12.95;;;7.32;;
14760;SDS011;7472;45.396;5.272;2024-03-08T13:54:02;7.82;;;6.82;;
14760;SDS011;7472;45.396;5.272;2024-03-08T13:56:31;9.15;;;6.28;;
14760;SDS011;7472;45.396;5.272;2024-03-08T13:58:59;10.65;;;7.00;;
14760;SDS011;7472;45.396;5.272;2024-03-08T14:01:27;9.80;;;5.50;;
14760;SDS011;7472;45.396;5.272;2024-03-08T14:03:56;8.88;;;5.82;;
14760;SDS011;7472;45.396;5.272;2024-03-08T14:06:24;6.18;;;4.45;;
14760;SDS011;7472;45.396;5.272;2024-03-08T14:08:52;6.78;;;4.75;;
14760;SDS011;7472;45.396;5.272;2024-03-08T14:11:22;6.65;;;4.75;;
14760;SDS011;7472;45.396;5.272;2024-03-08T14:13:50;7.03;;;4.13;;
14760;SDS011;7472;45.396;5.272;2024-03-08T14:16:18;5.78;;;4.97;;
14760;SDS011;7472;45.396;5.272;2024-03-08T14:18:46;6.75;;;4.40;;
14760;SDS011;7472;45.396;5.272;2024-03-08T14:21:14;6.45;;;3.75;;
14760;SDS011;7472;45.396;5.272;2024-03-08T14:23:42;5.15;;;3.50;;
14760;SDS011;7472;45.396;5.272;2024-03-08T14:26:09;5.13;;;3.42;;
14760;SDS011;7472;45.396;5.272;2024-03-08T14:28:37;6.63;;;4.35;;
14760;SDS011;7472;45.396;5.272;2024-03-08T14:31:04;7.85;;;4.82;;
14760;SDS011;7472;45.396;5.272;2024-03-08T14:33:36;8.73;;;5.75;;
14760;SDS011;7472;45.396;5.272;2024-03-08T14:36:04;6.85;;;3.90;;
14760;SDS011;7472;45.396;5.272;2024-03-08T14:38:33;11.00;;;6.10;;
14760;SDS011;7472;45.396;5.272;2024-03-08T14:41:03;9.55;;;8.10;;
14760;SDS011;7472;45.396;5.272;2024-03-08T14:43:32;11.07;;;6.85;;
14760;SDS011;7472;45.396;5.272;2024-03-08T14:45:59;12.32;;;7.47;;
14760;SDS011;7472;45.396;5.272;2024-03-08T14:48:28;6.93;;;4.53;;
14760;SDS011;7472;45.396;5.272;2024-03-08T14:50:55;8.68;;;4.30;;
14760;SDS011;7472;45.396;5.272;2024-03-08T14:53:23;5.95;;;3.80;;
14760;SDS011;7472;45.396;5.272;2024-03-08T14:55:52;5.90;;;3.80;;
14760;SDS011;7472;45.396;5.272;2024-03-08T14:58:20;6.25;;;4.00;;
14760;SDS011;7472;45.396;5.272;2024-03-08T15:00:49;5.97;;;4.28;;
14760;SDS011;7472;45.396;5.272;2024-03-08T15:03:20;4.07;;;3.63;;